McHenry, Kentucky
Current Conditions -  °F | °C
As of 9:55 AM on Friday 31 Oct 2014 (Local Time) from K2I0 Reporting Station
Overcast Overcast  
Wind Chill: 51°   Ceiling: 1700
Heat Index: 51°   Visibility: 10mi
Dew Point: 46°   Wind: 9mph
Humidity: 84%   Direction: 340°NNW
Pressure: 30.07"   Gusts: NA
Location:  37.38°N, 86.92°W
Report Text: K2I0 311455Z AUTO 34008KT 10SM BKN017 BKN024 OVC055 11/08 A3007 RMK AO2 T01060080
Loading
Personal Weather Stations






























Interactive Weather Map
Tropical Storm Tracking
New forecast layout! Learn more

10-Day Weather Forecast

Advertisements
Track Severe Weather on mobile